Endicott, NE (68350)

4:40 PM CDT on August 23, 2016 (GMT -0500)
Rock Creek | | Change Station

Elev 1368 ft 40.10 °N, 97.09 °W | Updated 7 minutes ago

Mostly Cloudy
Mostly Cloudy
88.7 °F
Feels Like 97 °F
N
15.5
Wind Variable Wind from SSE

Today
High -- | Low -- °F
--% Chance of Precip.
Yesterday
High -- | Low -- °F
Precip. -- in
Pressure 29.83 in
Visibility 10.0 miles
Clouds Scattered Clouds 4700 ft
Scattered Clouds 5500 ft
Mostly Cloudy 7500 ft
Heat Index 97 °F
Dew Point 74 °F
Humidity 61%
Rainfall 0.00 in
Snow Depth Not available.
6:48 AM 8:12 PM
Waning Gibbous, 64% visible
METAR KBIE 232135Z AUTO 18018G23KT 10SM SCT047 SCT055 BKN075 31/22 A2983 RMK AO2 T03110221
Pressure 29.83 in
Visibility 10.0 miles
Clouds Scattered Clouds 4700 ft
Scattered Clouds 5500 ft
Mostly Cloudy 7500 ft
Heat Index 97 °F
Dew Point 74 °F
Humidity 61%
Rainfall 0.00 in
Snow Depth Not available.
6:48 AM 8:12 PM
Waning Gibbous, 64% visible
METAR KBIE 232135Z AUTO 18018G23KT 10SM SCT047 SCT055 BKN075 31/22 A2983 RMK AO2 T03110221

10-Day Weather Forecast

Almanac

Astronomy

Aug. 23, 2016 Rise Set
Actual Time
Civil Twilight
Nautical Twilight
Astronomical Twilight
Moon
Length of Visible Light
Length of Day
Tomorrow will be .
, % of the Moon is Illuminated

Today's Extremes

State Highs State Lows

Community

WunderPhotos

Upload Photos

1,934,470 photos uploaded!

WunderBlog® & News

Nearby

Air Quality

  Air Quality AQ Index Pollutant
Not available.

Snow Depth

Station Depth Elevation

Earthquake Activity

City Distance Mag. Time & Date
Minimum magnitude displayed is 2.5.

Coastal Water Temperatures

Place Temperature

Stations

Nearby Weather Stations

Station Location Temp. Windchill Dew Point Humidity Wind Precip. Elev Updated Type
                   

Watches & Warnings

There are currently no watches in effect.